createdAt,value
2023-04-15T00:01:19.030Z,9.70
2023-04-15T00:03:47.472Z,7.57
2023-04-15T00:06:15.080Z,8.65
2023-04-15T00:08:42.418Z,8.07
2023-04-15T00:11:10.031Z,8.32
2023-04-15T00:13:37.783Z,8.43
2023-04-15T00:16:06.349Z,7.82
2023-04-15T00:18:33.691Z,7.03
2023-04-15T00:21:01.023Z,7.88
2023-04-15T00:23:28.262Z,9.65
2023-04-15T00:25:55.658Z,7.40
2023-04-15T00:28:22.950Z,8.02
2023-04-15T00:30:50.693Z,8.57
2023-04-15T00:33:18.249Z,7.95
2023-04-15T00:35:45.703Z,6.97
2023-04-15T00:38:13.072Z,6.90
2023-04-15T00:40:41.799Z,7.40
2023-04-15T00:43:08.983Z,11.43
2023-04-15T00:45:36.496Z,9.00
2023-04-15T00:48:04.982Z,8.70
2023-04-15T00:50:33.066Z,8.30
2023-04-15T00:53:00.208Z,8.52
2023-04-15T00:55:28.058Z,9.45
2023-04-15T00:57:56.217Z,7.85
2023-04-15T01:00:25.614Z,8.57
2023-04-15T01:02:53.198Z,7.07
2023-04-15T01:05:20.544Z,7.43
2023-04-15T01:07:48.732Z,7.90
2023-04-15T01:10:15.958Z,7.82
2023-04-15T01:12:44.523Z,11.85
2023-04-15T01:15:11.861Z,8.63
2023-04-15T01:17:39.805Z,8.18
2023-04-15T01:20:10.592Z,9.45
2023-04-15T01:22:39.472Z,9.68
2023-04-15T01:25:33.275Z,6.93
2023-04-15T01:28:01.067Z,9.67
2023-04-15T01:30:28.466Z,7.30
2023-04-15T01:32:56.083Z,15.25
2023-04-15T01:35:23.991Z,9.48
2023-04-15T01:37:52.545Z,8.57
2023-04-15T01:40:19.865Z,8.20
2023-04-15T01:42:47.280Z,11.07
2023-04-15T01:45:16.615Z,7.75
2023-04-15T01:47:43.865Z,9.85
2023-04-15T01:50:11.338Z,9.35
2023-04-15T01:52:38.682Z,9.07
2023-04-15T01:55:08.013Z,10.82
2023-04-15T01:57:35.445Z,8.18
2023-04-15T02:00:04.524Z,9.63
2023-04-15T02:02:40.902Z,8.90
2023-04-15T02:05:08.660Z,11.67
2023-04-15T02:07:37.933Z,7.70
2023-04-15T02:10:05.476Z,10.20
2023-04-15T02:12:32.715Z,7.80
2023-04-15T02:15:00.848Z,10.18
2023-04-15T02:17:28.189Z,13.40
2023-04-15T02:19:56.811Z,8.38
2023-04-15T02:22:25.242Z,13.55
2023-04-15T02:24:52.709Z,9.70
2023-04-15T02:27:19.989Z,9.27
2023-04-15T02:29:47.297Z,8.97
2023-04-15T02:32:14.592Z,8.82
2023-04-15T02:34:42.795Z,8.82
2023-04-15T02:37:12.488Z,12.52
2023-04-15T02:39:39.718Z,12.25
2023-04-15T02:42:07.290Z,8.57
2023-04-15T02:44:36.363Z,11.00
2023-04-15T02:47:06.978Z,9.65
2023-04-15T02:49:34.205Z,12.27
2023-04-15T02:52:01.587Z,11.60
2023-04-15T02:54:28.845Z,8.00
2023-04-15T02:56:56.624Z,10.68
2023-04-15T02:59:23.944Z,8.55
2023-04-15T03:01:51.574Z,7.93
2023-04-15T03:04:18.970Z,12.30
2023-04-15T03:06:46.396Z,11.43
2023-04-15T03:09:13.582Z,10.10
2023-04-15T03:11:42.037Z,9.77
2023-04-15T03:14:10.362Z,12.45
2023-04-15T03:16:41.839Z,11.77
2023-04-15T03:19:09.060Z,9.73
2023-04-15T03:21:36.357Z,11.63
2023-04-15T03:24:03.669Z,9.57
2023-04-15T03:26:31.662Z,10.30
2023-04-15T03:29:06.528Z,7.72
2023-04-15T03:31:34.345Z,11.03
2023-04-15T03:34:01.640Z,12.23
2023-04-15T03:36:34.727Z,11.02
2023-04-15T03:39:04.594Z,11.68
2023-04-15T03:41:32.860Z,10.02
2023-04-15T03:44:00.216Z,10.77
2023-04-15T03:46:27.867Z,11.00
2023-04-15T03:48:55.346Z,9.05
2023-04-15T03:51:22.531Z,13.48
2023-04-15T03:53:49.718Z,10.32
2023-04-15T03:56:17.167Z,13.07
2023-04-15T03:58:44.377Z,9.93
2023-04-15T04:01:11.800Z,11.65
2023-04-15T04:03:39.493Z,11.77
2023-04-15T04:06:06.802Z,9.70
2023-04-15T04:08:34.084Z,9.93
2023-04-15T04:11:03.959Z,15.80
2023-04-15T04:13:31.203Z,11.75
2023-04-15T04:15:58.407Z,9.73
2023-04-15T04:18:25.684Z,11.27
2023-04-15T04:20:52.958Z,12.13
2023-04-15T04:23:20.605Z,10.93
2023-04-15T04:25:47.796Z,11.63
2023-04-15T04:28:15.017Z,9.90
2023-04-15T04:30:42.202Z,9.65
2023-04-15T04:33:09.352Z,11.13
2023-04-15T04:35:37.791Z,11.63
2023-04-15T04:38:04.980Z,10.73
2023-04-15T04:40:32.210Z,10.57
2023-04-15T04:42:59.897Z,10.07
2023-04-15T04:45:27.147Z,10.83
2023-04-15T04:47:54.423Z,10.00
2023-04-15T04:50:21.607Z,9.85
2023-04-15T04:52:48.772Z,10.07
2023-04-15T04:55:15.960Z,14.68
2023-04-15T04:57:43.169Z,11.30
2023-04-15T05:00:11.063Z,10.50
2023-04-15T05:02:38.836Z,8.98
2023-04-15T05:05:06.812Z,10.70
2023-04-15T05:07:34.144Z,13.20
2023-04-15T05:10:01.765Z,12.87
2023-04-15T05:12:29.078Z,11.20
2023-04-15T05:14:56.267Z,11.60
2023-04-15T05:17:23.569Z,11.98
2023-04-15T05:19:50.814Z,12.85
2023-04-15T05:22:17.957Z,10.77
2023-04-15T05:24:45.171Z,13.15
2023-04-15T05:27:12.398Z,11.13
2023-04-15T05:29:39.600Z,16.00
2023-04-15T05:32:07.027Z,10.30
2023-04-15T05:34:34.220Z,11.70
2023-04-15T05:37:01.457Z,11.57
2023-04-15T05:39:28.596Z,11.63
2023-04-15T05:41:55.749Z,13.90
2023-04-15T05:44:22.919Z,12.57
2023-04-15T05:46:50.108Z,14.13
2023-04-15T05:49:17.242Z,14.15
2023-04-15T05:51:44.381Z,14.93
2023-04-15T05:54:11.521Z,13.48
2023-04-15T05:56:38.657Z,15.85
2023-04-15T05:59:05.866Z,12.13
2023-04-15T06:01:34.241Z,15.10
2023-04-15T06:04:01.915Z,12.70
2023-04-15T06:06:29.203Z,13.65
2023-04-15T06:08:57.348Z,12.32
2023-04-15T06:11:24.751Z,14.07
2023-04-15T06:13:51.950Z,12.68
2023-04-15T06:16:19.127Z,11.80
2023-04-15T06:18:46.427Z,12.05
2023-04-15T06:21:13.716Z,13.57
2023-04-15T06:23:41.379Z,12.40
2023-04-15T06:26:08.587Z,13.68
2023-04-15T06:28:35.928Z,11.05
2023-04-15T06:31:03.432Z,11.23
2023-04-15T06:33:31.659Z,10.52
2023-04-15T06:35:58.836Z,12.90
2023-04-15T06:38:26.380Z,12.07
2023-04-15T06:40:53.596Z,12.13
2023-04-15T06:43:20.833Z,13.68
2023-04-15T06:45:48.121Z,13.60
2023-04-15T06:48:16.746Z,11.97
2023-04-15T06:50:43.991Z,12.18
2023-04-15T06:53:11.402Z,11.88
2023-04-15T06:55:38.602Z,11.48
2023-04-15T06:58:05.825Z,12.07
2023-04-15T07:00:33.960Z,10.93
2023-04-15T07:03:03.665Z,13.40
2023-04-15T07:05:32.459Z,10.88
2023-04-15T07:08:00.390Z,9.55
2023-04-15T07:10:27.591Z,12.07
2023-04-15T07:12:54.751Z,11.50
2023-04-15T07:15:22.368Z,9.93
2023-04-15T07:17:49.871Z,11.02
2023-04-15T07:20:17.208Z,12.70
2023-04-15T07:22:44.472Z,10.55
2023-04-15T07:25:11.821Z,11.35
2023-04-15T07:27:39.104Z,9.65
2023-04-15T07:30:07.002Z,14.57
2023-04-15T07:32:34.298Z,9.32
2023-04-15T07:35:02.189Z,10.50
2023-04-15T07:37:29.743Z,11.98
2023-04-15T07:39:57.337Z,12.35
2023-04-15T07:42:24.637Z,12.50
2023-04-15T07:44:52.259Z,12.65
2023-04-15T07:47:19.554Z,9.35
2023-04-15T07:49:47.210Z,8.40
2023-04-15T07:52:14.416Z,9.18
2023-04-15T07:54:41.760Z,12.02
2023-04-15T07:57:08.918Z,10.32
2023-04-15T07:59:36.498Z,9.10
2023-04-15T08:02:04.156Z,11.40
2023-04-15T08:04:31.556Z,10.23
2023-04-15T08:06:58.958Z,10.32
2023-04-15T08:09:27.159Z,8.77
2023-04-15T08:11:54.545Z,9.00
2023-04-15T08:14:22.186Z,8.67
2023-04-15T08:16:49.329Z,7.43
2023-04-15T08:19:16.541Z,6.57
2023-04-15T08:21:43.832Z,8.43
2023-04-15T08:24:11.561Z,8.30
2023-04-15T08:26:38.751Z,7.63
2023-04-15T08:29:05.956Z,6.63
2023-04-15T08:31:33.334Z,7.78
2023-04-15T08:34:00.610Z,7.70
2023-04-15T08:36:28.405Z,6.45
2023-04-15T08:38:56.091Z,8.38
2023-04-15T08:41:25.664Z,8.32
2023-04-15T08:44:04.961Z,8.70
2023-04-15T08:46:36.446Z,7.25
2023-04-15T08:49:05.139Z,8.20
2023-04-15T08:51:33.923Z,7.97
2023-04-15T08:54:02.403Z,7.55
2023-04-15T08:56:32.486Z,8.23
2023-04-15T08:59:00.679Z,8.77
2023-04-15T09:01:28.628Z,7.22
2023-04-15T09:03:57.135Z,8.07
2023-04-15T09:06:25.273Z,7.85
2023-04-15T09:08:52.998Z,7.28
2023-04-15T09:11:22.087Z,7.30
2023-04-15T09:13:49.694Z,7.18
2023-04-15T09:16:17.165Z,6.65
2023-04-15T09:18:44.682Z,6.63
2023-04-15T09:21:14.607Z,6.45
2023-04-15T09:23:58.186Z,7.10
2023-04-15T09:26:37.135Z,6.13
2023-04-15T09:29:06.916Z,8.15
2023-04-15T09:31:34.229Z,7.83
2023-04-15T09:34:01.861Z,6.50
2023-04-15T09:36:30.409Z,7.03
2023-04-15T09:38:59.157Z,7.03
2023-04-15T09:41:28.650Z,6.93
2023-04-15T09:43:55.924Z,7.03
2023-04-15T09:46:44.129Z,7.43
2023-04-15T09:49:12.801Z,7.65
2023-04-15T09:51:40.005Z,7.32
2023-04-15T09:54:07.482Z,6.70
2023-04-15T09:56:37.832Z,7.57
2023-04-15T09:59:05.822Z,8.15
2023-04-15T10:01:33.179Z,6.43
2023-04-15T10:04:04.185Z,8.77
2023-04-15T10:06:32.213Z,7.07
2023-04-15T10:08:59.848Z,6.10
2023-04-15T10:11:31.634Z,6.57
2023-04-15T10:13:59.294Z,5.55
2023-04-15T10:16:28.759Z,5.43
2023-04-15T10:18:57.480Z,5.45
2023-04-15T10:21:24.950Z,5.70
2023-04-15T10:23:52.222Z,6.38
2023-04-15T10:26:20.206Z,6.13
2023-04-15T10:28:48.285Z,6.93
2023-04-15T10:31:16.805Z,5.95
2023-04-15T10:33:45.773Z,7.70
2023-04-15T10:36:13.894Z,5.72
2023-04-15T10:38:45.739Z,5.18
2023-04-15T10:41:19.560Z,6.28
2023-04-15T10:44:04.842Z,7.07
2023-04-15T10:46:40.099Z,6.07
2023-04-15T10:49:26.257Z,7.38
2023-04-15T10:51:58.225Z,6.28
2023-04-15T10:54:25.546Z,6.80
2023-04-15T10:57:06.386Z,7.07
2023-04-15T10:59:37.470Z,5.90
2023-04-15T11:02:06.075Z,5.40
2023-04-15T11:04:55.360Z,5.30
2023-04-15T11:07:40.506Z,6.45
2023-04-15T11:10:13.879Z,4.43
2023-04-15T11:12:42.034Z,5.40
2023-04-15T11:15:35.114Z,5.43
2023-04-15T11:18:12.966Z,5.75
2023-04-15T11:20:42.695Z,6.65
2023-04-15T11:23:15.349Z,6.63
2023-04-15T11:25:43.953Z,5.00
2023-04-15T11:28:12.615Z,6.93
2023-04-15T11:30:40.554Z,4.93
2023-04-15T11:33:10.215Z,4.78
2023-04-15T11:35:37.637Z,6.45
2023-04-15T11:38:08.656Z,5.33
2023-04-15T11:40:36.239Z,5.07
2023-04-15T11:43:11.837Z,4.63
2023-04-15T11:45:48.271Z,5.32
2023-04-15T11:48:15.841Z,5.05
2023-04-15T11:50:43.154Z,4.67
2023-04-15T11:53:12.583Z,5.10
2023-04-15T11:55:44.688Z,5.25
2023-04-15T11:58:16.886Z,5.10
2023-04-15T12:00:53.032Z,3.75
2023-04-15T12:03:29.305Z,4.33
2023-04-15T12:06:19.560Z,5.43
2023-04-15T12:08:55.968Z,5.15
2023-04-15T12:11:36.741Z,4.22
2023-04-15T12:14:07.279Z,4.65
2023-04-15T12:16:48.505Z,4.03
2023-04-15T12:19:22.156Z,3.92
2023-04-15T12:21:49.746Z,5.15
2023-04-15T12:24:21.728Z,4.65
2023-04-15T12:26:54.901Z,4.95
2023-04-15T12:29:26.612Z,4.20
2023-04-15T12:31:56.585Z,7.53
2023-04-15T12:34:32.479Z,4.35
2023-04-15T12:37:01.755Z,4.47
2023-04-15T12:39:32.521Z,4.97
2023-04-15T12:42:02.847Z,4.30
2023-04-15T12:44:30.263Z,6.47
2023-04-15T12:46:58.006Z,5.80
2023-04-15T12:49:25.713Z,4.95
2023-04-15T12:51:54.997Z,4.22
2023-04-15T12:54:22.986Z,4.80
2023-04-15T12:56:51.147Z,6.45
2023-04-15T12:59:19.182Z,5.80
2023-04-15T13:01:48.243Z,5.57
2023-04-15T13:04:17.062Z,5.97
2023-04-15T13:06:44.405Z,4.07
2023-04-15T13:09:11.647Z,4.57
2023-04-15T13:11:38.918Z,4.53
2023-04-15T13:14:08.334Z,4.20
2023-04-15T13:16:35.809Z,5.10
2023-04-15T13:19:04.065Z,5.17
2023-04-15T13:21:35.269Z,3.85
2023-04-15T13:24:04.522Z,4.03
2023-04-15T13:26:32.806Z,3.97
2023-04-15T13:29:01.232Z,4.57
2023-04-15T13:31:28.638Z,3.30
2023-04-15T13:33:57.066Z,3.83
2023-04-15T13:36:24.283Z,4.53
2023-04-15T13:38:51.971Z,3.70
2023-04-15T13:41:20.071Z,3.88
2023-04-15T13:43:47.385Z,4.93
2023-04-15T13:46:15.011Z,5.15
2023-04-15T13:48:42.482Z,4.20
2023-04-15T13:51:09.735Z,4.75
2023-04-15T13:53:38.530Z,5.38
2023-04-15T13:56:10.544Z,5.88
2023-04-15T13:58:38.482Z,5.03
2023-04-15T14:01:07.424Z,5.60
2023-04-15T14:03:36.381Z,3.88
2023-04-15T14:06:05.561Z,5.47
2023-04-15T14:08:32.944Z,5.40
2023-04-15T14:11:00.515Z,4.32
2023-04-15T14:13:27.781Z,6.78
2023-04-15T14:15:55.067Z,6.68
2023-04-15T14:18:22.303Z,6.50
2023-04-15T14:20:49.522Z,6.30
2023-04-15T14:23:16.757Z,5.57
2023-04-15T14:25:45.063Z,5.28
2023-04-15T14:28:14.213Z,5.00
2023-04-15T14:30:41.427Z,4.40
2023-04-15T14:33:08.663Z,7.10
2023-04-15T14:35:36.291Z,7.70
2023-04-15T14:38:03.872Z,4.78
2023-04-15T14:40:31.148Z,5.65
2023-04-15T14:42:58.428Z,5.65
2023-04-15T14:45:25.692Z,6.78
2023-04-15T14:47:53.609Z,5.15
2023-04-15T14:50:21.090Z,6.68
2023-04-15T14:52:48.272Z,8.45
2023-04-15T14:55:15.656Z,6.22
2023-04-15T14:57:43.236Z,5.68
2023-04-15T15:00:12.781Z,8.45
2023-04-15T15:02:43.820Z,7.32
2023-04-15T15:05:12.227Z,8.65
2023-04-15T15:07:40.857Z,6.65
2023-04-15T15:10:08.568Z,7.45
2023-04-15T15:12:35.930Z,7.03
2023-04-15T15:15:12.157Z,7.32
2023-04-15T15:17:39.904Z,8.85
2023-04-15T15:20:07.783Z,5.60
2023-04-15T15:22:34.973Z,8.65
2023-04-15T15:25:02.278Z,10.45
2023-04-15T15:27:29.643Z,7.30
2023-04-15T15:29:57.044Z,6.13
2023-04-15T15:32:24.379Z,9.60
2023-04-15T15:34:51.737Z,7.40
2023-04-15T15:37:19.027Z,5.03
2023-04-15T15:39:46.307Z,7.10
2023-04-15T15:42:13.466Z,9.05
2023-04-15T15:44:40.701Z,6.30
2023-04-15T15:47:08.187Z,7.55
2023-04-15T15:49:35.493Z,6.63
2023-04-15T15:52:02.928Z,5.85
2023-04-15T15:54:30.233Z,5.55
2023-04-15T15:56:57.692Z,9.95
2023-04-15T15:59:25.531Z,9.80
2023-04-15T16:01:53.020Z,11.18
2023-04-15T16:04:20.743Z,8.38
2023-04-15T16:06:48.397Z,10.98
2023-04-15T16:09:16.025Z,8.20
2023-04-15T16:11:44.854Z,8.68
2023-04-15T16:14:12.106Z,6.85
2023-04-15T16:16:39.680Z,6.78
2023-04-15T16:19:07.041Z,6.55
2023-04-15T16:21:34.588Z,7.80
2023-04-15T16:24:02.225Z,10.18
2023-04-15T16:26:29.426Z,7.70
2023-04-15T16:28:56.586Z,5.85
2023-04-15T16:31:23.848Z,7.63
2023-04-15T16:33:51.125Z,8.80
2023-04-15T16:36:18.288Z,6.57
2023-04-15T16:38:48.320Z,7.22
2023-04-15T16:41:16.198Z,9.77
2023-04-15T16:43:43.337Z,12.25
2023-04-15T16:46:10.823Z,8.70
2023-04-15T16:48:38.101Z,7.40
2023-04-15T16:51:05.532Z,7.30
2023-04-15T16:53:32.714Z,7.47
2023-04-15T16:55:59.937Z,5.70
2023-04-15T16:58:28.747Z,9.55
2023-04-15T17:00:56.143Z,7.63
2023-04-15T17:03:23.499Z,8.20
2023-04-15T17:05:50.992Z,5.82
2023-04-15T17:08:18.331Z,5.22
2023-04-15T17:10:45.578Z,4.37
2023-04-15T17:13:12.749Z,6.47
2023-04-15T17:15:40.833Z,7.68
2023-04-15T17:18:09.283Z,17.92
2023-04-15T17:20:36.562Z,8.10
2023-04-15T17:23:04.275Z,8.23
2023-04-15T17:25:31.426Z,7.53
2023-04-15T17:27:58.662Z,7.40
2023-04-15T17:30:26.236Z,7.63
2023-04-15T17:32:53.513Z,7.30
2023-04-15T17:35:20.951Z,9.20
2023-04-15T17:37:48.161Z,6.60
2023-04-15T17:40:15.385Z,5.53
2023-04-15T17:42:42.567Z,7.00
2023-04-15T17:45:10.276Z,6.32
2023-04-15T17:47:37.715Z,7.70
2023-04-15T17:50:05.471Z,5.82
2023-04-15T17:52:32.702Z,6.10
2023-04-15T17:55:00.045Z,9.38
2023-04-15T17:57:27.337Z,6.57
2023-04-15T17:59:54.572Z,5.70
2023-04-15T18:02:21.910Z,5.03
2023-04-15T18:04:49.356Z,5.13
2023-04-15T18:07:16.806Z,6.72
2023-04-15T18:09:44.278Z,3.63
2023-04-15T18:12:11.478Z,5.67
2023-04-15T18:14:38.684Z,7.88
2023-04-15T18:17:05.955Z,4.55
2023-04-15T18:19:33.145Z,8.48
2023-04-15T18:22:00.966Z,4.78
2023-04-15T18:24:28.351Z,9.87
2023-04-15T18:26:56.448Z,7.57
2023-04-15T18:29:23.860Z,9.68
2023-04-15T18:31:52.176Z,5.30
2023-04-15T18:34:19.405Z,9.05
2023-04-15T18:36:46.732Z,6.17
2023-04-15T18:39:13.890Z,8.30
2023-04-15T18:41:41.186Z,6.15
2023-04-15T18:44:08.528Z,7.28
2023-04-15T18:46:36.030Z,6.05
2023-04-15T18:49:04.198Z,10.20
2023-04-15T18:51:32.516Z,7.10
2023-04-15T18:53:59.723Z,6.25
2023-04-15T18:56:26.915Z,7.65
2023-04-15T18:59:25.863Z,5.32
2023-04-15T19:01:41.537Z,5.40
2023-04-15T19:04:10.020Z,6.28
2023-04-15T19:06:37.543Z,4.38
2023-04-15T19:09:05.081Z,11.10
2023-04-15T19:11:32.378Z,5.30
2023-04-15T19:13:59.555Z,5.70
2023-04-15T19:16:26.784Z,7.85
2023-04-15T19:18:54.060Z,3.83
2023-04-15T19:21:21.307Z,8.70
2023-04-15T19:23:48.661Z,9.95
2023-04-15T19:26:15.908Z,9.63
2023-04-15T19:28:43.112Z,7.03
2023-04-15T19:31:10.383Z,5.13
2023-04-15T19:33:38.182Z,9.75
2023-04-15T19:36:07.515Z,5.07
2023-04-15T19:38:37.862Z,7.43
2023-04-15T19:41:05.029Z,5.93
2023-04-15T19:43:33.338Z,6.10
2023-04-15T19:46:00.713Z,7.32
2023-04-15T19:48:29.949Z,4.78
2023-04-15T19:50:57.302Z,7.60
2023-04-15T19:53:25.654Z,9.50
2023-04-15T19:55:55.575Z,3.22
2023-04-15T19:58:23.910Z,7.45
2023-04-15T20:00:51.153Z,9.57
2023-04-15T20:03:18.915Z,6.27
2023-04-15T20:05:46.286Z,12.30
2023-04-15T20:08:13.638Z,4.88
2023-04-15T20:10:40.976Z,6.90
2023-04-15T20:13:08.220Z,7.07
2023-04-15T20:15:35.830Z,6.60
2023-04-15T20:18:03.399Z,5.03
2023-04-15T20:20:30.978Z,3.58
2023-04-15T20:22:58.337Z,5.15
2023-04-15T20:25:25.650Z,6.95
2023-04-15T20:27:52.928Z,4.33
2023-04-15T20:30:20.692Z,7.28
2023-04-15T20:32:47.929Z,5.70
2023-04-15T20:35:15.342Z,5.35
2023-04-15T20:37:44.956Z,8.52
2023-04-15T20:40:12.309Z,4.00
2023-04-15T20:42:39.532Z,7.10
2023-04-15T20:45:07.464Z,7.93
2023-04-15T20:47:34.769Z,5.68
2023-04-15T20:50:02.157Z,5.55
2023-04-15T20:52:30.149Z,9.40
2023-04-15T20:54:57.465Z,4.85
2023-04-15T20:57:24.721Z,6.35
2023-04-15T20:59:52.117Z,5.45
2023-04-15T21:02:19.471Z,10.80
2023-04-15T21:04:47.196Z,6.77
2023-04-15T21:07:14.410Z,5.07
2023-04-15T21:09:42.981Z,11.35
2023-04-15T21:12:11.216Z,8.13
2023-04-15T21:14:40.543Z,6.88
2023-04-15T21:17:10.829Z,11.63
2023-04-15T21:19:39.001Z,5.45
2023-04-15T21:22:06.349Z,7.63
2023-04-15T21:24:33.622Z,5.85
2023-04-15T21:27:01.845Z,9.27
2023-04-15T21:29:29.446Z,4.13
2023-04-15T21:31:56.735Z,8.20
2023-04-15T21:34:23.992Z,9.77
2023-04-15T21:36:51.186Z,7.22
2023-04-15T21:39:18.484Z,6.88
2023-04-15T21:41:45.785Z,12.30
2023-04-15T21:44:14.850Z,7.07
2023-04-15T21:46:46.078Z,8.18
2023-04-15T21:49:13.951Z,5.38
2023-04-15T21:51:41.295Z,5.40
2023-04-15T21:54:08.584Z,9.30
2023-04-15T21:56:36.749Z,6.80
2023-04-15T21:59:04.124Z,8.23
2023-04-15T22:01:31.601Z,9.32
2023-04-15T22:03:59.125Z,4.80
2023-04-15T22:06:27.039Z,8.77
2023-04-15T22:08:57.431Z,8.73
2023-04-15T22:11:30.160Z,7.97
2023-04-15T22:13:58.600Z,5.82
2023-04-15T22:16:26.548Z,9.00
2023-04-15T22:18:54.985Z,10.97
2023-04-15T22:21:22.851Z,13.23
2023-04-15T22:23:50.947Z,8.48
2023-04-15T22:26:18.155Z,14.02
2023-04-15T22:28:45.827Z,13.68
2023-04-15T22:31:13.736Z,10.90
2023-04-15T22:33:41.072Z,9.68
2023-04-15T22:36:08.295Z,11.38
2023-04-15T22:38:35.815Z,12.32
2023-04-15T22:41:03.170Z,17.30
2023-04-15T22:43:30.419Z,10.73
2023-04-15T22:45:57.757Z,12.07
2023-04-15T22:48:24.950Z,16.48
2023-04-15T22:50:52.664Z,7.65
2023-04-15T22:53:20.122Z,9.15
2023-04-15T22:55:48.187Z,10.37
2023-04-15T22:58:17.082Z,14.23
2023-04-15T23:00:45.026Z,13.00
2023-04-15T23:03:12.461Z,11.68
2023-04-15T23:05:41.126Z,17.08
2023-04-15T23:08:08.495Z,13.03
2023-04-15T23:10:35.781Z,9.15
2023-04-15T23:13:02.954Z,7.75
2023-04-15T23:15:30.291Z,9.82
2023-04-15T23:17:57.530Z,14.50
2023-04-15T23:20:24.745Z,10.50
2023-04-15T23:22:51.963Z,9.40
2023-04-15T23:25:22.147Z,7.95
2023-04-15T23:27:49.395Z,14.50
2023-04-15T23:30:16.598Z,7.43
2023-04-15T23:32:43.865Z,12.70
2023-04-15T23:35:11.187Z,10.63
2023-04-15T23:37:38.381Z,10.85
2023-04-15T23:40:06.388Z,8.98
2023-04-15T23:42:33.559Z,9.35
2023-04-15T23:45:00.753Z,11.33
2023-04-15T23:47:27.911Z,12.70
2023-04-15T23:49:55.197Z,11.52
2023-04-15T23:52:22.921Z,11.32
2023-04-15T23:54:50.227Z,7.05
2023-04-15T23:57:18.678Z,10.47
2023-04-15T23:59:46.241Z,5.13
